TOM322 EGPF-GVAC
Flight info
| Callsign | TOM322 |
|---|---|
| Flight time | N/A |
| Altitude | 34000 |
| Route | NORBO L186 TRN P600 BLACA DCT NIMAT DCT GURGA DCT CML/M080F340 DCT LASNO T9 BEGAS/N0460F340 DCT PINEK/N0455F350 DCT BUSEN DCT BEXAL DCT SAMAR N873 ODEGI/N0465F360 N873 IPERA DCT DIMKI DIMKI1S |
| Aircraft | B38M/M-SDE1FGHILORVWXY/HB1 |
Departure
| Time | N/A |
|---|---|
| Airport | Glasgow Airport (EGPF) |
Arrival
| Time | 2026-04-25 18:20 |
|---|---|
| Airport | Amílcar Cabral International Airport (GVAC) |
| Time | Latitude | Longitude | Altitude | Speed | Heading |
|---|---|---|---|---|---|
| 2026-04-25 16:34 | 26.06015 | -16.88387 | 34022 ft | 426 kts | 221° |
| 2026-04-25 16:34 | 26.03521 | -16.90150 | 34020 ft | 426 kts | 221° |
| 2026-04-25 16:35 | 25.98519 | -16.93683 | 34031 ft | 426 kts | 221° |
| 2026-04-25 16:35 | 25.93520 | -16.97211 | 34023 ft | 426 kts | 221° |
| 2026-04-25 16:36 | 25.88520 | -17.00736 | 34023 ft | 426 kts | 221° |
| 2026-04-25 16:36 | 25.83519 | -17.04258 | 33997 ft | 426 kts | 221° |
| 2026-04-25 16:37 | 25.78516 | -17.07778 | 34020 ft | 425 kts | 221° |
| 2026-04-25 16:37 | 25.73515 | -17.11292 | 34023 ft | 425 kts | 221° |
| 2026-04-25 16:38 | 25.68516 | -17.14802 | 34023 ft | 425 kts | 221° |
| 2026-04-25 16:38 | 25.63515 | -17.18309 | 34021 ft | 425 kts | 221° |
| 2026-04-25 16:39 | 25.58536 | -17.21798 | 34021 ft | 425 kts | 221° |
| 2026-04-25 16:39 | 25.53531 | -17.25301 | 34021 ft | 425 kts | 221° |
| 2026-04-25 16:40 | 25.48525 | -17.28802 | 34021 ft | 426 kts | 221° |
| 2026-04-25 16:40 | 25.43508 | -17.32307 | 34017 ft | 426 kts | 221° |
| 2026-04-25 16:41 | 25.38492 | -17.35808 | 34017 ft | 426 kts | 221° |
| 2026-04-25 16:41 | 25.30966 | -17.41053 | 34007 ft | 426 kts | 221° |
| 2026-04-25 16:42 | 25.25954 | -17.44543 | 34014 ft | 426 kts | 221° |
| 2026-04-25 16:42 | 25.20968 | -17.48010 | 34017 ft | 426 kts | 221° |
| 2026-04-25 16:43 | 25.15953 | -17.51495 | 34009 ft | 426 kts | 221° |
| 2026-04-25 16:43 | 25.10931 | -17.54980 | 34014 ft | 426 kts | 221° |
| 2026-04-25 16:44 | 25.05913 | -17.58461 | 34011 ft | 426 kts | 221° |
| 2026-04-25 16:44 | 25.00881 | -17.61947 | 34015 ft | 426 kts | 221° |
| 2026-04-25 16:45 | 24.95889 | -17.65397 | 34016 ft | 426 kts | 221° |
| 2026-04-25 16:45 | 24.90862 | -17.68868 | 34010 ft | 426 kts | 221° |
| 2026-04-25 16:46 | 24.85835 | -17.72336 | 33984 ft | 426 kts | 221° |
| 2026-04-25 16:46 | 24.82474 | -17.74653 | 33993 ft | 426 kts | 221° |
| 2026-04-25 16:47 | 24.75777 | -17.79265 | 34007 ft | 426 kts | 221° |
| 2026-04-25 16:47 | 24.70751 | -17.82723 | 34010 ft | 426 kts | 221° |
| 2026-04-25 16:48 | 24.65726 | -17.86176 | 34008 ft | 426 kts | 221° |
| 2026-04-25 16:48 | 24.60701 | -17.89626 | 34010 ft | 426 kts | 221° |
| 2026-04-25 16:49 | 24.55675 | -17.93073 | 34010 ft | 426 kts | 221° |
| 2026-04-25 16:49 | 24.50677 | -17.96498 | 33999 ft | 425 kts | 221° |
| 2026-04-25 16:50 | 24.45650 | -17.99940 | 34006 ft | 425 kts | 221° |
| 2026-04-25 16:50 | 24.40625 | -18.03377 | 34004 ft | 425 kts | 221° |
| 2026-04-25 16:51 | 24.35605 | -18.06807 | 34004 ft | 425 kts | 221° |
| 2026-04-25 16:51 | 24.32280 | -18.09077 | 33998 ft | 425 kts | 221° |
| 2026-04-25 16:52 | 24.25593 | -18.13639 | 34001 ft | 424 kts | 221° |
| 2026-04-25 16:52 | 24.20572 | -18.17060 | 33975 ft | 424 kts | 221° |
| 2026-04-25 16:53 | 24.13056 | -18.22175 | 34001 ft | 423 kts | 221° |
| 2026-04-25 16:54 | 24.08058 | -18.25573 | 34000 ft | 423 kts | 221° |
| 2026-04-25 16:54 | 24.03048 | -18.28976 | 33999 ft | 423 kts | 221° |
| 2026-04-25 16:55 | 23.98042 | -18.32372 | 33998 ft | 423 kts | 221° |
| 2026-04-25 16:55 | 23.93036 | -18.35766 | 34002 ft | 423 kts | 221° |
| 2026-04-25 16:56 | 23.88027 | -18.39159 | 33997 ft | 423 kts | 221° |
| 2026-04-25 16:56 | 23.83863 | -18.41977 | 33988 ft | 423 kts | 221° |
| 2026-04-25 16:57 | 23.78855 | -18.45362 | 33992 ft | 423 kts | 221° |
| 2026-04-25 16:57 | 23.73035 | -18.49293 | 33997 ft | 423 kts | 221° |
| 2026-04-25 16:58 | 23.68868 | -18.52106 | 34000 ft | 423 kts | 221° |
| 2026-04-25 16:58 | 23.63861 | -18.55481 | 33999 ft | 423 kts | 221° |
| 2026-04-25 16:59 | 23.58855 | -18.58854 | 33998 ft | 423 kts | 221° |
| 2026-04-25 16:59 | 23.53848 | -18.62224 | 33997 ft | 423 kts | 221° |
| 2026-04-25 17:00 | 23.48834 | -18.65596 | 33995 ft | 423 kts | 221° |
| 2026-04-25 17:00 | 23.43824 | -18.68961 | 33993 ft | 423 kts | 221° |
| 2026-04-25 17:01 | 23.38812 | -18.72325 | 34000 ft | 423 kts | 221° |
| 2026-04-25 17:01 | 23.33795 | -18.75690 | 33995 ft | 423 kts | 221° |
| 2026-04-25 17:02 | 23.28816 | -18.79026 | 33991 ft | 423 kts | 221° |
| 2026-04-25 17:02 | 23.23768 | -18.82406 | 33992 ft | 423 kts | 221° |
| 2026-04-25 17:03 | 23.18782 | -18.85741 | 33989 ft | 424 kts | 221° |
| 2026-04-25 17:03 | 23.13743 | -18.89108 | 33985 ft | 424 kts | 221° |
| 2026-04-25 17:04 | 23.08712 | -18.92467 | 33985 ft | 424 kts | 221° |
| 2026-04-25 17:04 | 23.03674 | -18.95827 | 33991 ft | 424 kts | 221° |
| 2026-04-25 17:05 | 22.98640 | -18.99182 | 33990 ft | 424 kts | 221° |
| 2026-04-25 17:05 | 22.91088 | -19.04210 | 33991 ft | 424 kts | 221° |
| 2026-04-25 17:06 | 22.86054 | -19.07557 | 33972 ft | 426 kts | 221° |
| 2026-04-25 17:06 | 22.81020 | -19.10901 | 33983 ft | 427 kts | 221° |
| 2026-04-25 17:07 | 22.75947 | -19.14269 | 33988 ft | 426 kts | 221° |
| 2026-04-25 17:07 | 22.70884 | -19.17627 | 33987 ft | 426 kts | 221° |
| 2026-04-25 17:08 | 22.65826 | -19.20979 | 33981 ft | 426 kts | 221° |
| 2026-04-25 17:08 | 22.60771 | -19.24326 | 33982 ft | 426 kts | 221° |
| 2026-04-25 17:09 | 22.55713 | -19.27672 | 33989 ft | 426 kts | 221° |
| 2026-04-25 17:09 | 22.50666 | -19.31007 | 33984 ft | 429 kts | 221° |
| 2026-04-25 17:10 | 22.45568 | -19.34374 | 33985 ft | 429 kts | 221° |
| 2026-04-25 17:10 | 22.40468 | -19.37738 | 33988 ft | 429 kts | 221° |
| 2026-04-25 17:11 | 22.35366 | -19.41101 | 33983 ft | 429 kts | 221° |
| 2026-04-25 17:11 | 22.30272 | -19.44457 | 33974 ft | 429 kts | 221° |
| 2026-04-25 17:12 | 22.25173 | -19.47813 | 33984 ft | 428 kts | 221° |
| 2026-04-25 17:12 | 22.20121 | -19.51136 | 33938 ft | 429 kts | 221° |
| 2026-04-25 17:13 | 22.15834 | -19.53952 | 33987 ft | 432 kts | 221° |
| 2026-04-25 17:13 | 22.09872 | -19.57867 | 33982 ft | 431 kts | 221° |
| 2026-04-25 17:14 | 22.04741 | -19.61228 | 33982 ft | 431 kts | 221° |
| 2026-04-25 17:14 | 21.99610 | -19.64589 | 33977 ft | 431 kts | 221° |
| 2026-04-25 17:15 | 21.94489 | -19.67941 | 33980 ft | 431 kts | 221° |
| 2026-04-25 17:15 | 21.89357 | -19.71298 | 33979 ft | 431 kts | 221° |
| 2026-04-25 17:16 | 21.84219 | -19.74655 | 33979 ft | 433 kts | 221° |
| 2026-04-25 17:16 | 21.79095 | -19.78001 | 33978 ft | 433 kts | 221° |
| 2026-04-25 17:17 | 21.73943 | -19.81361 | 33975 ft | 433 kts | 221° |
| 2026-04-25 17:17 | 21.68777 | -19.84728 | 33979 ft | 433 kts | 221° |
| 2026-04-25 17:18 | 21.63622 | -19.88085 | 33979 ft | 433 kts | 221° |
| 2026-04-25 17:18 | 21.58470 | -19.91438 | 33978 ft | 433 kts | 221° |
| 2026-04-25 17:19 | 21.53309 | -19.94793 | 33949 ft | 434 kts | 220° |
| 2026-04-25 17:19 | 21.48154 | -19.98142 | 33979 ft | 436 kts | 220° |
| 2026-04-25 17:20 | 21.42966 | -20.01509 | 33974 ft | 435 kts | 220° |
| 2026-04-25 17:20 | 21.37782 | -20.04871 | 33974 ft | 435 kts | 220° |
| 2026-04-25 17:21 | 21.32596 | -20.08231 | 33972 ft | 435 kts | 220° |
| 2026-04-25 17:21 | 21.27416 | -20.11585 | 33971 ft | 435 kts | 220° |
| 2026-04-25 17:22 | 21.23104 | -20.14374 | 33965 ft | 435 kts | 220° |
| 2026-04-25 17:22 | 21.17027 | -20.18303 | 33970 ft | 438 kts | 220° |
| 2026-04-25 17:23 | 21.11808 | -20.21673 | 33978 ft | 438 kts | 220° |
| 2026-04-25 17:23 | 21.06624 | -20.25018 | 33973 ft | 438 kts | 220° |
| 2026-04-25 17:24 | 21.01370 | -20.28405 | 33967 ft | 438 kts | 220° |
| 2026-04-25 17:24 | 20.96184 | -20.31746 | 33972 ft | 438 kts | 220° |
| 2026-04-25 17:25 | 20.90963 | -20.35106 | 33975 ft | 438 kts | 220° |
| 2026-04-25 17:25 | 20.85742 | -20.38465 | 33946 ft | 438 kts | 219° |
| 2026-04-25 17:26 | 20.80501 | -20.41832 | 33967 ft | 440 kts | 219° |
| 2026-04-25 17:26 | 20.75253 | -20.45202 | 33968 ft | 440 kts | 219° |
| 2026-04-25 17:27 | 20.70006 | -20.48568 | 33967 ft | 440 kts | 219° |
| 2026-04-25 17:27 | 20.66492 | -20.50821 | 33968 ft | 440 kts | 219° |
| 2026-04-25 17:28 | 20.59503 | -20.55299 | 33972 ft | 440 kts | 219° |
| 2026-04-25 17:28 | 20.54260 | -20.58654 | 33972 ft | 440 kts | 219° |
| 2026-04-25 17:29 | 20.48997 | -20.62011 | 33961 ft | 441 kts | 219° |
| 2026-04-25 17:29 | 20.43726 | -20.65372 | 33964 ft | 441 kts | 219° |
| 2026-04-25 17:30 | 20.38493 | -20.68706 | 33968 ft | 441 kts | 219° |
| 2026-04-25 17:30 | 20.33223 | -20.72061 | 33967 ft | 441 kts | 219° |
| 2026-04-25 17:31 | 20.27947 | -20.75417 | 33968 ft | 441 kts | 219° |
| 2026-04-25 17:31 | 20.22676 | -20.78767 | 33972 ft | 441 kts | 219° |
| 2026-04-25 17:32 | 20.17405 | -20.82114 | 33968 ft | 441 kts | 219° |
| 2026-04-25 17:32 | 20.12133 | -20.85460 | 33977 ft | 441 kts | 219° |
| 2026-04-25 17:33 | 20.06860 | -20.88804 | 33967 ft | 441 kts | 219° |
| 2026-04-25 17:33 | 20.01590 | -20.92142 | 33972 ft | 441 kts | 219° |
| 2026-04-25 17:34 | 19.96315 | -20.95481 | 33960 ft | 441 kts | 219° |
| 2026-04-25 17:34 | 19.91041 | -20.98817 | 33969 ft | 441 kts | 219° |
| 2026-04-25 17:35 | 19.85766 | -21.02152 | 33965 ft | 441 kts | 219° |
| 2026-04-25 17:35 | 19.80475 | -21.05493 | 33961 ft | 443 kts | 218° |
| 2026-04-25 17:36 | 19.75207 | -21.08818 | 33964 ft | 443 kts | 218° |
| 2026-04-25 17:36 | 19.69908 | -21.12159 | 33967 ft | 443 kts | 218° |
| 2026-04-25 17:37 | 19.64601 | -21.15503 | 33960 ft | 443 kts | 218° |
| 2026-04-25 17:37 | 19.59286 | -21.18849 | 33965 ft | 444 kts | 218° |
| 2026-04-25 17:38 | 19.55737 | -21.21082 | 33966 ft | 444 kts | 218° |
| 2026-04-25 17:38 | 19.48666 | -21.25527 | 33946 ft | 444 kts | 218° |
| 2026-04-25 17:39 | 19.43340 | -21.28873 | 33966 ft | 445 kts | 218° |
| 2026-04-25 17:39 | 19.38011 | -21.32218 | 33963 ft | 445 kts | 218° |
| 2026-04-25 17:40 | 19.32682 | -21.35560 | 33969 ft | 445 kts | 218° |
| 2026-04-25 17:40 | 19.27388 | -21.38878 | 33965 ft | 445 kts | 218° |
| 2026-04-25 17:41 | 19.22052 | -21.42219 | 33964 ft | 445 kts | 217° |
| 2026-04-25 17:41 | 19.16714 | -21.45560 | 33968 ft | 445 kts | 217° |
| 2026-04-25 17:42 | 19.11377 | -21.48897 | 33959 ft | 446 kts | 217° |
| 2026-04-25 17:42 | 19.06028 | -21.52238 | 33963 ft | 446 kts | 217° |
| 2026-04-25 17:43 | 19.00682 | -21.55576 | 33964 ft | 446 kts | 217° |
| 2026-04-25 17:43 | 18.95334 | -21.58912 | 33961 ft | 446 kts | 217° |
| 2026-04-25 17:44 | 18.90024 | -21.62223 | 33969 ft | 446 kts | 217° |
| 2026-04-25 17:44 | 18.84674 | -21.65555 | 33969 ft | 446 kts | 217° |
| 2026-04-25 17:45 | 18.81098 | -21.67781 | 33943 ft | 446 kts | 217° |
| 2026-04-25 17:45 | 18.73979 | -21.72210 | 33962 ft | 446 kts | 217° |
| 2026-04-25 17:46 | 18.69491 | -21.74999 | 33964 ft | 446 kts | 217° |
| 2026-04-25 17:46 | 18.64137 | -21.78325 | 33963 ft | 447 kts | 217° |
| 2026-04-25 17:47 | 18.58782 | -21.81648 | 33964 ft | 446 kts | 217° |
| 2026-04-25 17:47 | 18.53462 | -21.84948 | 33965 ft | 447 kts | 217° |
| 2026-04-25 17:48 | 18.45425 | -21.89927 | 33948 ft | 447 kts | 216° |
| 2026-04-25 17:49 | 18.40061 | -21.93248 | 33955 ft | 447 kts | 216° |
| 2026-04-25 17:49 | 18.34692 | -21.96570 | 33959 ft | 447 kts | 216° |
| 2026-04-25 17:50 | 18.29329 | -21.99885 | 33954 ft | 447 kts | 216° |
| 2026-04-25 17:50 | 18.23965 | -22.03199 | 33957 ft | 447 kts | 216° |
| 2026-04-25 17:51 | 18.18599 | -22.06511 | 33964 ft | 447 kts | 216° |
| 2026-04-25 17:51 | 18.13227 | -22.09825 | 33961 ft | 447 kts | 216° |
| 2026-04-25 17:52 | 18.07861 | -22.13132 | 33965 ft | 448 kts | 216° |
| 2026-04-25 17:52 | 18.02533 | -22.16414 | 33146 ft | 441 kts | 216° |
| 2026-04-25 17:52 | 17.99924 | -22.18021 | 32457 ft | 441 kts | 217° |
| 2026-04-25 17:53 | 17.97276 | -22.19651 | 31697 ft | 441 kts | 217° |
| 2026-04-25 17:53 | 17.94603 | -22.21296 | 30900 ft | 450 kts | 217° |
| 2026-04-25 17:53 | 17.91880 | -22.22970 | 30160 ft | 456 kts | 217° |
| 2026-04-25 17:53 | 17.89136 | -22.24655 | 29454 ft | 458 kts | 217° |
| 2026-04-25 17:54 | 17.86382 | -22.26347 | 28838 ft | 458 kts | 217° |
| 2026-04-25 17:54 | 17.83630 | -22.28038 | 28245 ft | 456 kts | 217° |
| 2026-04-25 17:54 | 17.80906 | -22.29710 | 27622 ft | 452 kts | 216° |
| 2026-04-25 17:54 | 17.78207 | -22.31367 | 27012 ft | 449 kts | 216° |
| 2026-04-25 17:55 | 17.75508 | -22.33023 | 26389 ft | 447 kts | 216° |
| 2026-04-25 17:55 | 17.72828 | -22.34667 | 25801 ft | 445 kts | 216° |
| 2026-04-25 17:55 | 17.70156 | -22.36306 | 25194 ft | 444 kts | 215° |
| 2026-04-25 17:55 | 17.67514 | -22.37925 | 24896 ft | 435 kts | 215° |
| 2026-04-25 17:56 | 17.64903 | -22.39525 | 24268 ft | 434 kts | 215° |
| 2026-04-25 17:56 | 17.62315 | -22.41110 | 23502 ft | 428 kts | 214° |
| 2026-04-25 17:56 | 17.59747 | -22.42683 | 22522 ft | 427 kts | 214° |
| 2026-04-25 17:56 | 17.57186 | -22.44251 | 22011 ft | 423 kts | 214° |
| 2026-04-25 17:57 | 17.54659 | -22.45798 | 21577 ft | 418 kts | 214° |
| 2026-04-25 17:57 | 17.52191 | -22.47307 | 21133 ft | 413 kts | 214° |
| 2026-04-25 17:57 | 17.49724 | -22.48816 | 20678 ft | 408 kts | 214° |
| 2026-04-25 17:57 | 17.48084 | -22.49819 | 20327 ft | 402 kts | 213° |
| 2026-04-25 17:58 | 17.44896 | -22.51768 | 19469 ft | 397 kts | 213° |
| 2026-04-25 17:58 | 17.42529 | -22.53214 | 18872 ft | 392 kts | 213° |
| 2026-04-25 17:58 | 17.40186 | -22.54645 | 18280 ft | 387 kts | 213° |
| 2026-04-25 17:58 | 17.37873 | -22.56058 | 17658 ft | 382 kts | 213° |
| 2026-04-25 17:59 | 17.35588 | -22.57453 | 16964 ft | 379 kts | 213° |
| 2026-04-25 17:59 | 17.33366 | -22.58809 | 16832 ft | 361 kts | 213° |
| 2026-04-25 17:59 | 17.31187 | -22.60139 | 15980 ft | 365 kts | 213° |
| 2026-04-25 17:59 | 17.28991 | -22.61479 | 15346 ft | 364 kts | 213° |
| 2026-04-25 18:00 | 17.27522 | -22.62375 | 14961 ft | 362 kts | 213° |
| 2026-04-25 18:00 | 17.24636 | -22.64133 | 14398 ft | 360 kts | 213° |
| 2026-04-25 18:00 | 17.22478 | -22.65449 | 13989 ft | 359 kts | 213° |
| 2026-04-25 18:00 | 17.20327 | -22.66759 | 13566 ft | 357 kts | 213° |
| 2026-04-25 18:01 | 17.18187 | -22.68063 | 13164 ft | 354 kts | 213° |
| 2026-04-25 18:01 | 17.16067 | -22.69353 | 12763 ft | 351 kts | 213° |
| 2026-04-25 18:01 | 17.13971 | -22.70630 | 12397 ft | 347 kts | 213° |
| 2026-04-25 18:01 | 17.11897 | -22.71892 | 12004 ft | 344 kts | 213° |
| 2026-04-25 18:02 | 17.09835 | -22.73147 | 11638 ft | 340 kts | 213° |
| 2026-04-25 18:02 | 17.07791 | -22.74391 | 11246 ft | 338 kts | 213° |
| 2026-04-25 18:02 | 17.05773 | -22.75618 | 10871 ft | 335 kts | 213° |
| 2026-04-25 18:02 | 17.03764 | -22.76840 | 10514 ft | 331 kts | 213° |
| 2026-04-25 18:03 | 17.01779 | -22.78046 | 10153 ft | 329 kts | 213° |
| 2026-04-25 18:03 | 16.99813 | -22.79240 | 9774 ft | 326 kts | 213° |
| 2026-04-25 18:03 | 16.97860 | -22.80427 | 9373 ft | 324 kts | 213° |
| 2026-04-25 18:03 | 16.95983 | -22.81567 | 9283 ft | 303 kts | 213° |
| 2026-04-25 18:04 | 16.94227 | -22.82633 | 9172 ft | 284 kts | 213° |
| 2026-04-25 18:04 | 16.92545 | -22.83654 | 8825 ft | 275 kts | 213° |
| 2026-04-25 18:04 | 16.90922 | -22.84640 | 8549 ft | 266 kts | 214° |
| 2026-04-25 18:04 | 16.89332 | -22.85605 | 8296 ft | 263 kts | 214° |
| 2026-04-25 18:05 | 16.87753 | -22.86563 | 8096 ft | 263 kts | 214° |
| 2026-04-25 18:05 | 16.86172 | -22.87523 | 7931 ft | 263 kts | 214° |
| 2026-04-25 18:05 | 16.84584 | -22.88486 | 7800 ft | 264 kts | 214° |
| 2026-04-25 18:05 | 16.82965 | -22.89396 | 7686 ft | 264 kts | 211° |
| 2026-04-25 18:06 | 16.81330 | -22.90285 | 7572 ft | 264 kts | 212° |
| 2026-04-25 18:06 | 16.79741 | -22.91238 | 7490 ft | 263 kts | 216° |
| 2026-04-25 18:06 | 16.78191 | -22.92253 | 7436 ft | 263 kts | 215° |
| 2026-04-25 18:06 | 16.76610 | -22.93221 | 7392 ft | 263 kts | 213° |
| 2026-04-25 18:07 | 16.75018 | -22.94154 | 7281 ft | 261 kts | 213° |
| 2026-04-25 18:07 | 16.73426 | -22.95087 | 6946 ft | 263 kts | 213° |
| 2026-04-25 18:07 | 16.71855 | -22.95996 | 6698 ft | 260 kts | 213° |
| 2026-04-25 18:07 | 16.70277 | -22.96906 | 6470 ft | 257 kts | 213° |
| 2026-04-25 18:08 | 16.68719 | -22.97805 | 6214 ft | 255 kts | 213° |
| 2026-04-25 18:08 | 16.67174 | -22.98698 | 5944 ft | 253 kts | 213° |
| 2026-04-25 18:08 | 16.65615 | -22.99593 | 5699 ft | 259 kts | 213° |
| 2026-04-25 18:08 | 16.64024 | -23.00515 | 5437 ft | 263 kts | 213° |
| 2026-04-25 18:09 | 16.62417 | -23.01445 | 5158 ft | 265 kts | 212° |
| 2026-04-25 18:09 | 16.60811 | -23.02395 | 4903 ft | 266 kts | 213° |
| 2026-04-25 18:09 | 16.59195 | -23.03350 | 4642 ft | 266 kts | 213° |
| 2026-04-25 18:09 | 16.58675 | -23.03661 | 4557 ft | 266 kts | 213° |
| 2026-04-25 18:10 | 16.55963 | -23.05259 | 4170 ft | 267 kts | 213° |
| 2026-04-25 18:10 | 16.54367 | -23.06221 | 3815 ft | 270 kts | 213° |
| 2026-04-25 18:10 | 16.52729 | -23.07242 | 3546 ft | 269 kts | 213° |
| 2026-04-25 18:10 | 16.51123 | -23.08253 | 3181 ft | 272 kts | 212° |
| 2026-04-25 18:11 | 16.49475 | -23.09154 | 2897 ft | 271 kts | 197° |
| 2026-04-25 18:11 | 16.47640 | -23.09286 | 2756 ft | 259 kts | 165° |
| 2026-04-25 18:11 | 16.46066 | -23.08532 | 2724 ft | 237 kts | 134° |
| 2026-04-25 18:11 | 16.45197 | -23.07231 | 2667 ft | 212 kts | 101° |
| 2026-04-25 18:12 | 16.45173 | -23.05811 | 2614 ft | 185 kts | 65° |
| 2026-04-25 18:12 | 16.45874 | -23.04816 | 2498 ft | 166 kts | 37° |
| 2026-04-25 18:12 | 16.46820 | -23.04115 | 2166 ft | 165 kts | 32° |
| 2026-04-25 18:12 | 16.47786 | -23.03449 | 2024 ft | 168 kts | 32° |
| 2026-04-25 18:13 | 16.48762 | -23.02772 | 1960 ft | 169 kts | 32° |
| 2026-04-25 18:13 | 16.49739 | -23.02097 | 1987 ft | 168 kts | 32° |
| 2026-04-25 18:13 | 16.50713 | -23.01413 | 2020 ft | 168 kts | 32° |
| 2026-04-25 18:14 | 16.52674 | -23.00062 | 1985 ft | 169 kts | 32° |
| 2026-04-25 18:14 | 16.53645 | -22.99387 | 1989 ft | 168 kts | 32° |
| 2026-04-25 18:14 | 16.54624 | -22.98722 | 1996 ft | 168 kts | 32° |
| 2026-04-25 18:14 | 16.55603 | -22.98059 | 1989 ft | 167 kts | 32° |
| 2026-04-25 18:15 | 16.56574 | -22.97384 | 1992 ft | 168 kts | 32° |
| 2026-04-25 18:15 | 16.57555 | -22.96716 | 2005 ft | 168 kts | 32° |
| 2026-04-25 18:15 | 16.58525 | -22.96060 | 1972 ft | 167 kts | 32° |
| 2026-04-25 18:15 | 16.59439 | -22.95441 | 1957 ft | 144 kts | 32° |
| 2026-04-25 18:16 | 16.60259 | -22.94942 | 2001 ft | 133 kts | 19° |
| 2026-04-25 18:16 | 16.61153 | -22.94811 | 2100 ft | 130 kts | 4° |
| 2026-04-25 18:16 | 16.62955 | -22.94820 | 1942 ft | 129 kts | 2° |
| 2026-04-25 18:17 | 16.63854 | -22.94826 | 1797 ft | 129 kts | 1° |
| 2026-04-25 18:17 | 16.64753 | -22.94832 | 1633 ft | 130 kts | 1° |
| 2026-04-25 18:17 | 16.65655 | -22.94840 | 1475 ft | 129 kts | 1° |
| 2026-04-25 18:17 | 16.66555 | -22.94847 | 1309 ft | 131 kts | 2° |
| 2026-04-25 18:18 | 16.67474 | -22.94852 | 1133 ft | 131 kts | 2° |
| 2026-04-25 18:18 | 16.68384 | -22.94859 | 991 ft | 130 kts | 3° |
| 2026-04-25 18:18 | 16.69279 | -22.94861 | 794 ft | 127 kts | 0° |
| 2026-04-25 18:18 | 16.70150 | -22.94873 | 631 ft | 124 kts | 0° |
| 2026-04-25 18:19 | 16.71006 | -22.94874 | 460 ft | 122 kts | 1° |
| 2026-04-25 18:19 | 16.71867 | -22.94881 | 323 ft | 126 kts | 5° |
| 2026-04-25 18:19 | 16.72745 | -22.94893 | 191 ft | 122 kts | 4° |
| 2026-04-25 18:19 | 16.73372 | -22.94889 | 195 ft | 56 kts | 359° |
| 2026-04-25 18:20 | 16.73739 | -22.94894 | 190 ft | 53 kts | 360° |
| 2026-04-25 18:20 | 16.74094 | -22.94897 | 186 ft | 50 kts | 0° |
| 2026-04-25 18:20 | 16.74258 | -22.94821 | 187 ft | 21 kts | 61° |
| 2026-04-25 18:20 | 16.74297 | -22.94717 | 187 ft | 9 kts | 109° |
| 2026-04-25 18:21 | 16.74271 | -22.94696 | 187 ft | 4 kts | 169° |
| 2026-04-25 18:21 | 16.74236 | -22.94697 | 187 ft | 11 kts | 182° |
| 2026-04-25 18:21 | 16.74106 | -22.94699 | 188 ft | 26 kts | 178° |
| 2026-04-25 18:21 | 16.73911 | -22.94694 | 201 ft | 25 kts | 181° |
| 2026-04-25 18:22 | 16.73741 | -22.94696 | 202 ft | 22 kts | 180° |
| 2026-04-25 18:22 | 16.73694 | -22.94696 | 206 ft | 17 kts | 179° |
| 2026-04-25 18:22 | 16.73598 | -22.94620 | 203 ft | 8 kts | 96° |
| 2026-04-25 18:22 | 16.73557 | -22.94597 | 205 ft | 8 kts | 179° |
| 2026-04-25 18:23 | 16.73499 | -22.94592 | 203 ft | 8 kts | 147° |
| 2026-04-25 18:23 | 16.73495 | -22.94536 | 203 ft | 9 kts | 86° |
| 2026-04-25 18:23 | 16.73495 | -22.94502 | 203 ft | 0 kts | 90° |